createdAt,value
2023-04-03T00:00:35.084Z,8.60
2023-04-03T00:03:02.210Z,8.40
2023-04-03T00:05:28.932Z,8.50
2023-04-03T00:07:55.739Z,8.30
2023-04-03T00:10:22.422Z,7.90
2023-04-03T00:12:49.181Z,8.30
2023-04-03T00:15:16.152Z,8.00
2023-04-03T00:17:42.971Z,8.00
2023-04-03T00:20:09.960Z,8.20
2023-04-03T00:22:36.634Z,8.00
2023-04-03T00:25:04.097Z,8.00
2023-04-03T00:27:30.951Z,7.60
2023-04-03T00:29:57.647Z,8.00
2023-04-03T00:32:24.417Z,8.30
2023-04-03T00:34:51.190Z,8.20
2023-04-03T00:37:17.901Z,8.10
2023-04-03T00:39:44.599Z,8.10
2023-04-03T00:42:11.967Z,8.30
2023-04-03T00:44:38.570Z,8.40
2023-04-03T00:47:07.063Z,8.10
2023-04-03T00:49:33.911Z,8.00
2023-04-03T00:52:00.790Z,8.60
2023-04-03T00:54:27.669Z,8.70
2023-04-03T00:56:56.626Z,8.10
2023-04-03T00:59:27.504Z,8.10
2023-04-03T01:02:00.146Z,8.20
2023-04-03T01:04:39.385Z,8.10
2023-04-03T01:07:12.009Z,8.10
2023-04-03T01:09:39.980Z,8.00
2023-04-03T01:12:22.878Z,7.80
2023-04-03T01:14:52.823Z,7.90
2023-04-03T01:17:32.229Z,8.00
2023-04-03T01:20:33.834Z,7.50
2023-04-03T01:23:09.783Z,7.80
2023-04-03T01:25:44.568Z,7.50
2023-04-03T01:28:24.304Z,6.80
2023-04-03T01:31:03.594Z,7.20
2023-04-03T01:33:30.342Z,7.30
2023-04-03T01:35:57.098Z,7.30
2023-04-03T01:38:24.913Z,7.20
2023-04-03T01:40:51.755Z,7.30
2023-04-03T01:43:19.678Z,7.20
2023-04-03T01:45:47.608Z,7.00
2023-04-03T01:48:18.397Z,7.40
2023-04-03T01:50:49.521Z,7.50
2023-04-03T01:53:21.777Z,7.30
2023-04-03T01:55:50.878Z,7.00
2023-04-03T01:58:21.346Z,7.20
2023-04-03T02:00:48.196Z,6.70
2023-04-03T02:03:18.611Z,6.70
2023-04-03T02:05:46.802Z,7.10
2023-04-03T02:08:14.062Z,7.50
2023-04-03T02:10:54.187Z,6.90
2023-04-03T02:13:20.938Z,6.50
2023-04-03T02:15:49.610Z,6.70
2023-04-03T02:18:16.755Z,7.30
2023-04-03T02:20:43.454Z,7.40
2023-04-03T02:23:10.673Z,7.10
2023-04-03T02:25:38.818Z,7.40
2023-04-03T02:28:06.407Z,7.00
2023-04-03T02:30:33.179Z,7.20
2023-04-03T02:32:59.958Z,7.60
2023-04-03T02:35:26.721Z,6.90
2023-04-03T02:37:53.537Z,6.80
2023-04-03T02:40:20.351Z,6.60
2023-04-03T02:42:47.083Z,6.60
2023-04-03T02:45:13.783Z,7.00
2023-04-03T02:47:40.836Z,7.00
2023-04-03T02:50:07.746Z,6.70
2023-04-03T02:52:34.474Z,6.80
2023-04-03T02:55:01.174Z,6.90
2023-04-03T02:57:27.881Z,6.90
2023-04-03T02:59:54.627Z,7.00
2023-04-03T03:02:22.092Z,6.80
2023-04-03T03:04:48.914Z,7.20
2023-04-03T03:07:15.739Z,7.00
2023-04-03T03:09:42.876Z,6.90
2023-04-03T03:12:09.567Z,7.10
2023-04-03T03:14:36.273Z,7.40
2023-04-03T03:17:02.959Z,6.80
2023-04-03T03:19:29.645Z,7.20
2023-04-03T03:21:57.852Z,6.90
2023-04-03T03:24:24.592Z,6.90
2023-04-03T03:26:51.289Z,7.00
2023-04-03T03:29:17.983Z,6.70
2023-04-03T03:31:44.752Z,6.70
2023-04-03T03:34:11.548Z,6.30
2023-04-03T03:36:38.309Z,6.70
2023-04-03T03:39:05.118Z,6.70
2023-04-03T03:41:32.046Z,7.00
2023-04-03T03:43:58.795Z,6.80
2023-04-03T03:46:25.641Z,7.20
2023-04-03T03:48:52.394Z,7.20
2023-04-03T03:51:19.152Z,6.60
2023-04-03T03:53:46.631Z,7.50
2023-04-03T03:56:13.331Z,7.20
2023-04-03T03:58:40.035Z,7.20
2023-04-03T04:01:07.840Z,7.00
2023-04-03T04:03:34.849Z,7.40
2023-04-03T04:06:01.632Z,7.20
2023-04-03T04:08:28.318Z,7.30
2023-04-03T04:10:55.040Z,7.50
2023-04-03T04:13:22.234Z,7.20
2023-04-03T04:15:48.933Z,7.30
2023-04-03T04:18:15.677Z,7.30
2023-04-03T04:20:42.371Z,7.50
2023-04-03T04:23:09.075Z,7.10
2023-04-03T04:25:36.114Z,7.30
2023-04-03T04:28:02.967Z,7.60
2023-04-03T04:30:29.713Z,7.30
2023-04-03T04:32:56.513Z,7.60
2023-04-03T04:35:23.319Z,7.10
2023-04-03T04:37:50.850Z,7.00
2023-04-03T04:40:17.626Z,7.20
2023-04-03T04:42:44.308Z,7.10
2023-04-03T04:45:11.169Z,7.40
2023-04-03T04:47:37.934Z,7.30
2023-04-03T04:50:05.414Z,6.80
2023-04-03T04:52:32.120Z,7.60
2023-04-03T04:54:58.839Z,7.00
2023-04-03T04:57:25.638Z,7.20
2023-04-03T04:59:52.407Z,6.90
2023-04-03T05:02:19.143Z,7.00
2023-04-03T05:04:45.872Z,7.00
2023-04-03T05:07:12.708Z,6.90
2023-04-03T05:09:39.676Z,6.80
2023-04-03T05:12:06.685Z,6.60
2023-04-03T05:14:33.423Z,6.70
2023-04-03T05:17:00.113Z,5.90
2023-04-03T05:19:26.853Z,6.60
2023-04-03T05:21:53.617Z,6.80
2023-04-03T05:24:20.356Z,6.40
2023-04-03T05:26:47.078Z,6.90
2023-04-03T05:29:13.798Z,6.70
2023-04-03T05:31:40.569Z,6.40
2023-04-03T05:34:07.353Z,6.30
2023-04-03T05:36:42.553Z,6.00
2023-04-03T05:39:09.531Z,6.20
2023-04-03T05:41:36.205Z,6.80
2023-04-03T05:44:02.927Z,6.60
2023-04-03T05:46:29.654Z,6.00
2023-04-03T05:48:56.674Z,5.90
2023-04-03T05:51:27.000Z,5.90
2023-04-03T05:54:14.102Z,6.20
2023-04-03T05:56:40.982Z,7.30
2023-04-03T05:59:08.286Z,7.70
2023-04-03T06:01:35.374Z,8.50
2023-04-03T06:04:02.332Z,8.80
2023-04-03T06:06:52.302Z,8.60
2023-04-03T06:09:20.642Z,9.40
2023-04-03T06:11:47.546Z,10.40
2023-04-03T06:14:14.238Z,10.50
2023-04-03T06:16:40.968Z,10.10
2023-04-03T06:19:09.035Z,10.90
2023-04-03T06:21:36.764Z,9.40
2023-04-03T06:24:06.843Z,9.50
2023-04-03T06:26:34.231Z,8.10
2023-04-03T06:29:01.044Z,8.70
2023-04-03T06:31:27.790Z,10.00
2023-04-03T06:33:54.630Z,10.20
2023-04-03T06:36:22.044Z,9.50
2023-04-03T06:38:49.430Z,9.50
2023-04-03T06:41:17.366Z,9.00
2023-04-03T06:43:46.872Z,8.60
2023-04-03T06:46:18.149Z,10.00
2023-04-03T06:48:45.579Z,9.30
2023-04-03T06:51:23.409Z,10.60
2023-04-03T06:53:51.563Z,10.50
2023-04-03T06:56:18.502Z,10.20
2023-04-03T06:58:45.970Z,10.60
2023-04-03T07:01:14.780Z,10.50
2023-04-03T07:03:41.619Z,11.50
2023-04-03T07:06:10.636Z,11.10
2023-04-03T07:08:37.324Z,10.90
2023-04-03T07:11:05.116Z,11.00
2023-04-03T07:13:32.308Z,11.00
2023-04-03T07:15:59.498Z,11.00
2023-04-03T07:18:26.311Z,11.30
2023-04-03T07:20:53.279Z,11.60
2023-04-03T07:23:20.274Z,12.30
2023-04-03T07:25:48.304Z,11.50
2023-04-03T07:28:15.558Z,11.50
2023-04-03T07:30:53.028Z,11.20
2023-04-03T07:33:22.224Z,11.20
2023-04-03T07:35:48.951Z,11.00
2023-04-03T07:38:17.012Z,10.90
2023-04-03T07:40:48.775Z,12.20
2023-04-03T07:43:16.667Z,11.80
2023-04-03T07:45:44.280Z,13.20
2023-04-03T07:48:12.377Z,10.40
2023-04-03T07:50:41.645Z,11.10
2023-04-03T07:53:08.867Z,11.60
2023-04-03T07:55:38.386Z,11.30
2023-04-03T07:58:05.737Z,11.70
2023-04-03T08:00:32.592Z,10.40
2023-04-03T08:02:59.427Z,11.60
2023-04-03T08:05:26.319Z,12.30
2023-04-03T08:07:53.066Z,12.60
2023-04-03T08:10:20.462Z,11.70
2023-04-03T08:12:48.258Z,11.20
2023-04-03T08:15:15.121Z,9.90
2023-04-03T08:17:41.805Z,9.50
2023-04-03T08:20:09.166Z,10.50
2023-04-03T08:22:35.876Z,9.70
2023-04-03T08:25:02.831Z,9.70
2023-04-03T08:27:29.938Z,10.00
2023-04-03T08:29:57.908Z,8.90
2023-04-03T08:32:25.194Z,8.70
2023-04-03T08:34:52.091Z,8.50
2023-04-03T08:37:18.863Z,8.50
2023-04-03T08:39:45.653Z,7.50
2023-04-03T08:42:21.095Z,7.40
2023-04-03T08:44:56.177Z,7.40
2023-04-03T08:47:31.316Z,7.60
2023-04-03T08:50:04.100Z,7.80
2023-04-03T08:52:37.902Z,7.80
2023-04-03T08:55:08.473Z,7.30
2023-04-03T08:57:38.395Z,8.10
2023-04-03T09:00:10.991Z,8.40
2023-04-03T09:02:49.245Z,8.60
2023-04-03T09:05:39.890Z,8.30
2023-04-03T09:08:28.536Z,7.90
2023-04-03T09:11:34.232Z,7.80
2023-04-03T09:14:04.207Z,7.80
2023-04-03T09:16:40.149Z,8.60
2023-04-03T09:19:23.093Z,8.30
2023-04-03T09:21:49.848Z,8.70
2023-04-03T09:24:17.696Z,8.30
2023-04-03T09:26:49.808Z,9.00
2023-04-03T09:29:21.686Z,8.60
2023-04-03T09:31:51.121Z,8.50
2023-04-03T09:34:27.217Z,8.30
2023-04-03T09:37:06.713Z,8.60
2023-04-03T09:40:00.811Z,8.60
2023-04-03T09:42:37.014Z,8.50
2023-04-03T09:45:25.142Z,8.80
2023-04-03T09:48:29.673Z,8.40
2023-04-03T09:51:12.893Z,8.60
2023-04-03T09:53:58.880Z,8.80
2023-04-03T09:56:29.754Z,9.40
2023-04-03T09:59:05.118Z,9.70
2023-04-03T10:01:43.985Z,9.60
2023-04-03T10:04:25.668Z,9.90
2023-04-03T10:06:57.931Z,9.70
2023-04-03T10:09:30.161Z,9.40
2023-04-03T10:12:07.674Z,8.80
2023-04-03T10:14:36.501Z,9.10
2023-04-03T10:17:21.883Z,9.10
2023-04-03T10:19:57.508Z,9.40
2023-04-03T10:23:00.145Z,9.50
2023-04-03T10:25:41.329Z,9.90
2023-04-03T10:28:31.671Z,9.30
2023-04-03T10:31:38.523Z,9.50
2023-04-03T10:34:29.854Z,9.20
2023-04-03T10:37:21.107Z,9.70
2023-04-03T10:40:24.921Z,9.60
2023-04-03T10:42:57.347Z,9.90
2023-04-03T10:45:27.653Z,9.80
2023-04-03T10:48:17.077Z,9.60
2023-04-03T10:51:07.876Z,9.90
2023-04-03T10:53:40.728Z,10.00
2023-04-03T10:56:24.157Z,9.90
2023-04-03T10:59:03.248Z,10.30
2023-04-03T11:01:34.960Z,9.70
2023-04-03T11:04:03.629Z,9.80
2023-04-03T11:06:57.265Z,9.10
2023-04-03T11:09:34.121Z,9.40
2023-04-03T11:12:18.147Z,9.40
2023-04-03T11:14:45.882Z,9.00
2023-04-03T11:17:22.828Z,8.90
2023-04-03T11:20:01.524Z,9.10
2023-04-03T11:22:32.709Z,9.10
2023-04-03T11:25:22.775Z,8.80
2023-04-03T11:27:55.321Z,9.20
2023-04-03T11:30:28.010Z,9.10
2023-04-03T11:33:06.442Z,8.90
2023-04-03T11:35:33.640Z,9.40
2023-04-03T11:38:01.604Z,9.00
2023-04-03T11:40:31.767Z,9.30
2023-04-03T11:43:01.625Z,9.30
2023-04-03T11:45:47.292Z,9.30
2023-04-03T11:48:24.964Z,9.50
2023-04-03T11:50:52.875Z,9.80
2023-04-03T11:53:36.787Z,9.40
2023-04-03T11:56:24.986Z,9.30
2023-04-03T11:59:12.575Z,9.50
2023-04-03T12:01:49.304Z,9.80
2023-04-03T12:04:17.940Z,9.10
2023-04-03T12:06:48.182Z,9.70
2023-04-03T12:09:28.533Z,9.50
2023-04-03T12:11:57.094Z,9.50
2023-04-03T12:14:26.208Z,9.40
2023-04-03T12:16:54.752Z,9.80
2023-04-03T12:19:24.286Z,10.20
2023-04-03T12:21:58.333Z,9.80
2023-04-03T12:24:27.544Z,9.90
2023-04-03T12:27:00.221Z,9.70
2023-04-03T12:29:43.908Z,9.40
2023-04-03T12:32:35.627Z,10.00
2023-04-03T12:35:15.156Z,9.90
2023-04-03T12:38:13.114Z,9.90
2023-04-03T12:40:42.751Z,9.60
2023-04-03T12:46:54.684Z,9.90
2023-04-03T12:49:52.810Z,10.30
2023-04-03T12:53:04.743Z,9.90
2023-04-03T12:55:33.688Z,10.00
2023-04-03T12:58:39.922Z,9.50
2023-04-03T13:01:51.102Z,9.90
2023-04-03T13:04:59.800Z,9.20
2023-04-03T13:11:27.132Z,9.40
2023-04-03T13:14:03.026Z,9.70
2023-04-03T13:16:29.961Z,9.70
2023-04-03T13:18:57.065Z,9.20
2023-04-03T13:21:34.012Z,9.70
2023-04-03T13:24:13.807Z,10.30
2023-04-03T13:26:42.521Z,9.30
2023-04-03T13:29:29.979Z,9.60
2023-04-03T13:31:58.919Z,9.70
2023-04-03T13:34:28.667Z,9.60
2023-04-03T13:37:01.683Z,9.30
2023-04-03T13:39:31.534Z,10.20
2023-04-03T13:42:02.556Z,10.00
2023-04-03T13:44:36.289Z,10.40
2023-04-03T13:47:12.308Z,10.40
2023-04-03T13:49:47.169Z,10.50
2023-04-03T13:52:37.583Z,10.30
2023-04-03T13:55:29.607Z,9.90
2023-04-03T13:58:08.562Z,9.40
2023-04-03T14:00:56.238Z,9.60
2023-04-03T14:03:25.178Z,9.70
2023-04-03T14:05:52.044Z,10.30
2023-04-03T14:08:24.361Z,10.40
2023-04-03T14:10:59.467Z,10.10
2023-04-03T14:13:26.180Z,10.60
2023-04-03T14:15:53.870Z,10.60
2023-04-03T14:18:21.900Z,10.40
2023-04-03T14:20:49.490Z,10.60
2023-04-03T14:23:16.406Z,9.60
2023-04-03T14:25:43.640Z,10.10
2023-04-03T14:28:21.845Z,10.10
2023-04-03T14:30:50.883Z,10.20
2023-04-03T14:33:21.359Z,10.00
2023-04-03T14:35:48.506Z,10.10
2023-04-03T14:38:26.231Z,10.10
2023-04-03T14:40:55.583Z,10.40
2023-04-03T14:43:24.094Z,9.70
2023-04-03T14:45:51.709Z,10.20
2023-04-03T14:48:23.685Z,10.60
2023-04-03T14:51:04.421Z,9.80
2023-04-03T14:53:38.779Z,10.30
2023-04-03T14:56:12.309Z,10.30
2023-04-03T14:58:39.104Z,10.20
2023-04-03T15:01:05.804Z,10.30
2023-04-03T15:03:33.329Z,10.20
2023-04-03T15:06:00.253Z,9.80
2023-04-03T15:08:30.403Z,10.00
2023-04-03T15:10:57.417Z,9.80
2023-04-03T15:13:24.852Z,9.10
2023-04-03T15:15:52.557Z,9.50
2023-04-03T15:18:21.613Z,9.30
2023-04-03T15:20:49.023Z,9.60
2023-04-03T15:23:17.326Z,9.50
2023-04-03T15:25:45.710Z,9.80
2023-04-03T15:28:30.995Z,9.80
2023-04-03T15:30:58.189Z,9.60
2023-04-03T15:33:25.763Z,9.20
2023-04-03T15:35:52.717Z,10.00
2023-04-03T15:38:21.120Z,9.70
2023-04-03T15:40:50.455Z,10.00
2023-04-03T15:43:17.340Z,9.90
2023-04-03T15:45:45.381Z,10.00
2023-04-03T15:48:12.590Z,9.80
2023-04-03T15:50:40.650Z,10.10
2023-04-03T15:53:07.667Z,9.80
2023-04-03T15:55:37.015Z,9.70
2023-04-03T15:58:04.276Z,9.90
2023-04-03T16:00:31.578Z,9.30
2023-04-03T16:03:06.190Z,9.10
2023-04-03T16:05:33.103Z,8.90
2023-04-03T16:08:01.140Z,9.30
2023-04-03T16:10:28.981Z,9.20
2023-04-03T16:12:56.106Z,9.00
2023-04-03T16:15:23.394Z,9.50
2023-04-03T16:17:50.332Z,9.10
2023-04-03T16:20:17.800Z,8.90
2023-04-03T16:22:44.505Z,9.10
2023-04-03T16:25:11.868Z,8.80
2023-04-03T16:27:39.084Z,8.70
2023-04-03T16:30:07.185Z,8.90
2023-04-03T16:32:34.249Z,8.90
2023-04-03T16:37:29.560Z,8.70
2023-04-03T16:39:59.174Z,9.10
2023-04-03T16:42:26.384Z,9.10
2023-04-03T16:44:53.113Z,8.70
2023-04-03T16:47:19.956Z,9.10
2023-04-03T16:49:47.387Z,8.80
2023-04-03T16:52:14.693Z,8.70
2023-04-03T16:54:41.516Z,8.70
2023-04-03T16:57:08.382Z,8.60
2023-04-03T16:59:35.264Z,9.40
2023-04-03T17:02:02.046Z,8.90
2023-04-03T17:04:28.725Z,8.70
2023-04-03T17:06:55.724Z,7.90
2023-04-03T17:09:23.657Z,8.20
2023-04-03T17:11:50.441Z,8.50
2023-04-03T17:14:17.145Z,8.40
2023-04-03T17:16:44.164Z,8.80
2023-04-03T17:19:12.747Z,8.70
2023-04-03T17:21:39.558Z,8.80
2023-04-03T17:24:09.318Z,8.10
2023-04-03T17:26:37.457Z,7.80
2023-04-03T17:29:04.761Z,8.10
2023-04-03T17:31:31.554Z,8.20
2023-04-03T17:34:01.546Z,8.60
2023-04-03T17:36:32.972Z,8.90
2023-04-03T17:39:00.170Z,8.00
2023-04-03T17:41:27.081Z,8.20
2023-04-03T17:43:56.856Z,8.30
2023-04-03T17:46:25.365Z,8.40
2023-04-03T17:48:52.729Z,8.30
2023-04-03T17:51:22.022Z,8.10
2023-04-03T17:53:50.667Z,8.30
2023-04-03T17:56:19.942Z,8.50
2023-04-03T17:58:46.684Z,7.70
2023-04-03T18:01:19.985Z,8.40
2023-04-03T18:03:48.423Z,7.40
2023-04-03T18:06:17.869Z,8.30
2023-04-03T18:08:47.937Z,7.80
2023-04-03T18:11:15.723Z,8.00
2023-04-03T18:13:42.494Z,8.10
2023-04-03T18:16:10.683Z,8.50
2023-04-03T18:18:37.902Z,8.20
2023-04-03T18:21:05.309Z,7.80
2023-04-03T18:23:33.118Z,7.20
2023-04-03T18:26:01.113Z,7.40
2023-04-03T18:28:28.824Z,7.60
2023-04-03T18:30:55.538Z,7.00
2023-04-03T18:33:22.251Z,7.20
2023-04-03T18:35:49.396Z,7.70
2023-04-03T18:38:16.894Z,7.20
2023-04-03T18:40:44.742Z,7.70
2023-04-03T18:43:12.246Z,7.10
2023-04-03T18:45:39.162Z,7.00
2023-04-03T18:48:06.287Z,7.30
2023-04-03T18:50:33.059Z,7.60
2023-04-03T18:52:59.806Z,7.40
2023-04-03T18:55:26.515Z,7.20
2023-04-03T18:57:53.267Z,7.20
2023-04-03T19:00:20.070Z,7.20
2023-04-03T19:02:46.867Z,7.40
2023-04-03T19:05:16.153Z,7.30
2023-04-03T19:07:44.501Z,7.20
2023-04-03T19:10:17.143Z,7.50
2023-04-03T19:12:45.301Z,8.60
2023-04-03T19:15:20.236Z,8.00
2023-04-03T19:17:47.150Z,7.80
2023-04-03T19:20:14.828Z,7.10
2023-04-03T19:22:42.453Z,7.00
2023-04-03T19:25:10.185Z,7.30
2023-04-03T19:27:37.457Z,6.80
2023-04-03T19:30:08.932Z,6.50
2023-04-03T19:32:35.818Z,6.40
2023-04-03T19:35:02.826Z,6.60
2023-04-03T19:37:29.537Z,6.40
2023-04-03T19:39:56.246Z,6.60
2023-04-03T19:42:23.027Z,7.70
2023-04-03T19:44:50.206Z,7.20
2023-04-03T19:47:18.885Z,6.90
2023-04-03T19:49:45.846Z,6.80
2023-04-03T19:52:13.076Z,6.30
2023-04-03T19:54:39.834Z,6.20
2023-04-03T19:57:07.071Z,6.30
2023-04-03T19:59:44.372Z,6.20
2023-04-03T20:02:11.573Z,6.10
2023-04-03T20:04:38.544Z,6.10
2023-04-03T20:07:06.013Z,6.20
2023-04-03T20:09:37.631Z,6.40
2023-04-03T20:12:04.654Z,6.30
2023-04-03T20:14:38.674Z,6.50
2023-04-03T20:17:15.764Z,7.70
2023-04-03T20:19:42.636Z,7.10
2023-04-03T20:22:11.676Z,6.70
2023-04-03T20:24:42.702Z,6.60
2023-04-03T20:27:09.889Z,6.40
2023-04-03T20:29:36.724Z,6.10
2023-04-03T20:32:04.107Z,5.70
2023-04-03T20:34:30.843Z,6.10
2023-04-03T20:36:58.403Z,5.90
2023-04-03T20:39:25.276Z,6.10
2023-04-03T20:41:52.080Z,5.90
2023-04-03T20:44:19.776Z,5.80
2023-04-03T20:46:53.000Z,5.90
2023-04-03T20:49:21.269Z,5.70
2023-04-03T20:51:48.467Z,5.40
2023-04-03T20:54:15.174Z,5.10
2023-04-03T20:56:42.080Z,4.80
2023-04-03T20:59:10.975Z,4.90
2023-04-03T21:01:37.917Z,4.60
2023-04-03T21:04:15.752Z,4.90
2023-04-03T21:07:19.854Z,5.20
2023-04-03T21:10:25.120Z,5.10
2023-04-03T21:13:29.378Z,5.00
2023-04-03T21:15:56.026Z,4.70
2023-04-03T21:18:37.102Z,5.10
2023-04-03T21:21:04.815Z,5.20
2023-04-03T21:23:32.181Z,4.90
2023-04-03T21:26:02.030Z,5.20
2023-04-03T21:28:28.758Z,4.80
2023-04-03T21:30:55.728Z,4.90
2023-04-03T21:33:22.571Z,4.80
2023-04-03T21:35:57.432Z,5.10
2023-04-03T21:38:26.000Z,5.00
2023-04-03T21:40:56.344Z,4.70
2023-04-03T21:43:23.031Z,4.60
2023-04-03T21:45:55.081Z,4.80
2023-04-03T21:48:23.210Z,4.90
2023-04-03T21:50:52.270Z,5.30
2023-04-03T21:53:22.597Z,5.20
2023-04-03T21:55:53.552Z,4.90
2023-04-03T21:58:20.626Z,4.70
2023-04-03T22:00:47.448Z,5.20
2023-04-03T22:03:20.023Z,5.00
2023-04-03T22:05:46.735Z,5.10
2023-04-03T22:08:14.120Z,4.70
2023-04-03T22:10:41.491Z,4.50
2023-04-03T22:13:08.525Z,4.80
2023-04-03T22:15:43.244Z,5.10
2023-04-03T22:18:10.900Z,4.90
2023-04-03T22:20:38.256Z,4.70
2023-04-03T22:23:05.912Z,4.60
2023-04-03T22:25:32.896Z,4.50
2023-04-03T22:27:59.670Z,4.70
2023-04-03T22:30:26.437Z,4.90
2023-04-03T22:32:53.215Z,4.80
2023-04-03T22:35:19.944Z,4.80
2023-04-03T22:37:46.982Z,4.70
2023-04-03T22:40:13.862Z,4.60
2023-04-03T22:42:40.550Z,4.80
2023-04-03T22:45:07.941Z,5.00
2023-04-03T22:47:34.689Z,4.70
2023-04-03T22:50:01.582Z,4.50
2023-04-03T22:52:28.312Z,4.20
2023-04-03T22:54:56.730Z,4.20
2023-04-03T22:57:26.412Z,4.30
2023-04-03T22:59:53.150Z,4.00
2023-04-03T23:02:19.844Z,4.20
2023-04-03T23:04:46.682Z,3.90
2023-04-03T23:07:13.457Z,4.00
2023-04-03T23:09:40.185Z,4.00
2023-04-03T23:12:09.767Z,3.90
2023-04-03T23:14:36.644Z,4.20
2023-04-03T23:17:05.653Z,3.60
2023-04-03T23:19:34.980Z,3.50
2023-04-03T23:22:01.806Z,3.80
2023-04-03T23:24:29.218Z,4.30
2023-04-03T23:26:57.158Z,4.00
2023-04-03T23:29:23.972Z,3.50
2023-04-03T23:31:50.763Z,4.10
2023-04-03T23:34:17.526Z,3.70
2023-04-03T23:36:44.300Z,4.20
2023-04-03T23:39:11.086Z,4.50
2023-04-03T23:41:37.794Z,4.40
2023-04-03T23:44:04.562Z,4.50
2023-04-03T23:46:31.361Z,4.20
2023-04-03T23:48:58.145Z,4.20
2023-04-03T23:51:24.854Z,4.00
2023-04-03T23:53:51.592Z,4.10
2023-04-03T23:56:18.281Z,4.00
2023-04-03T23:58:45.047Z,4.50
